Cosco Himalayas — VRQX8 — position and weather

sailwx.info

Track history (hours):
 
Tides and Currents Weather Stations Pressure Air Temp Water Temp Dewpoint Dewpoint Depression Visibility Wind Speed Wind Dir Waves Ship Positions

Cosco Himalayas

Last reported at 2018-Apr-22 12:00 UTC. Time now 2018-Apr-22 12:06 UTC.
Position N 51°18' E 004°16'.

Length 366 m; draft 13.7 m.

Type: Ship (hazmat cat D). MMSI: 477100300.

Date/timePositionNaut miles runAvg speedWind from/ knotsBaromVisibWave heightAir tempDewpointWater temp
2018-Apr-22 12:00N 51°18' E 004°16'0 0.0
2018-Apr-22 11:30N 51°18' E 004°16'0 0.0
2018-Apr-22 11:00N 51°18' E 004°16'0 0.0
2018-Apr-22 10:27N 51°18' E 004°16'0 0.0
2018-Apr-22 10:00N 51°18' E 004°16'0 0.0
2018-Apr-22 09:27N 51°18' E 004°16'0 0.0
2018-Apr-22 08:57N 51°18' E 004°16'0 0.0
2018-Apr-22 08:30N 51°18' E 004°16'0 0.0
2018-Apr-22 08:00N 51°18' E 004°16'0 0.0
2018-Apr-22 07:29N 51°18' E 004°16'0 0.0
2018-Apr-22 06:59N 51°18' E 004°16'0 0.0
2018-Apr-22 06:29N 51°18' E 004°16'0 0.0
2018-Apr-22 05:59N 51°18' E 004°16'0 0.0
2018-Apr-22 05:29N 51°18' E 004°16'0 0.0
2018-Apr-22 04:59N 51°18' E 004°16'0 0.0
2018-Apr-22 04:29N 51°18' E 004°16'0 0.0
2018-Apr-22 03:59N 51°18' E 004°16'0 0.0
2018-Apr-22 03:29N 51°18' E 004°16'0 0.0
2018-Apr-22 02:59N 51°18' E 004°16'0 0.0
2018-Apr-22 02:29N 51°18' E 004°16'0 0.0
2018-Apr-22 01:59N 51°18' E 004°16'0 0.0
2018-Apr-22 01:29N 51°18' E 004°16'0 0.0
2018-Apr-22 00:59N 51°18' E 004°16'0 0.0
2018-Apr-22 00:29N 51°18' E 004°16'0 0.0
2018-Apr-21 23:59N 51°18' E 004°16'0 0.0
2018-Apr-21 23:29N 51°18' E 004°16'0 0.0
2018-Apr-21 22:59N 51°18' E 004°16'0 0.0
2018-Apr-21 22:29N 51°18' E 004°16'0 0.0
2018-Apr-21 21:59N 51°18' E 004°16'0 0.0
2018-Apr-21 21:29N 51°18' E 004°16'0 0.0
2018-Apr-21 20:59N 51°18' E 004°16'0 0.0
2018-Apr-21 20:29N 51°18' E 004°16'0 0.0
2018-Apr-21 20:00N 51°18' E 004°16'0 0.8
2018-Apr-21 19:30N 51°18' E 004°16'1 1.2
2018-Apr-21 19:01N 51°18' E 004°16'3 5.7
2018-Apr-21 18:31N 51°21' E 004°15'4 7.6
2018-Apr-21 18:00N 51°23' E 004°09'5 9.4
2018-Apr-21 17:31N 51°24' E 004°02'3 6.2
2018-Apr-21 17:00N 51°23' E 003°57'612.0
2018-Apr-21 16:30N 51°21' E 003°48'611.0
2018-Apr-21 16:00N 51°25' E 003°42'510.6
2018-Apr-21 15:30N 51°25' E 003°34'612.7
2018-Apr-21 15:00N 51°25' E 003°24'815.4
2018-Apr-21 14:30N 51°24' E 003°12'714.0
2018-Apr-21 13:59N 51°25' E 002°60'612.9
2018-Apr-21 13:30N 51°25' E 002°50'510.3
2018-Apr-21 13:00N 51°23' E 002°43'4 7.6
2018-Apr-21 12:30N 51°22' E 002°37'510.1
2018-Apr-21 12:00N 51°22' E 002°29'612.8
2018-Apr-21 11:30N 51°19' E 002°19'714.2
2018-Apr-21 11:01N 51°15' E 002°10'714.6
2018-Apr-21 10:31N 51°12' E 001°59'815.1
2018-Apr-21 10:01N 51°08' E 001°49'714.7
2018-Apr-21 09:30N 51°03' E 001°40'714.2
2018-Apr-21 09:00N 50°58' E 001°32'714.5
2018-Apr-21 08:31N 50°52' E 001°26'815.0
2018-Apr-21 08:00N 50°45' E 001°22'815.1
2018-Apr-21 07:31N 50°39' E 001°14'815.6
2018-Apr-21 07:00N 50°34' E 001°05'815.3
2018-Apr-21 06:31N 50°30' E 000°55'815.6
2018-Apr-21 06:01N 50°28' E 000°43'815.3
2018-Apr-21 05:30N 50°25' E 000°32'715.0
2018-Apr-21 05:01N 50°23' E 000°21'714.5
2018-Apr-21 04:31N 50°21' E 000°10'714.7
2018-Apr-21 04:00N 50°18' W 000°01'714.8
2018-Apr-21 03:31N 50°16' W 000°12'714.9
2018-Apr-21 03:01N 50°14' W 000°23'815.3
2018-Apr-21 02:31N 50°12' W 000°35'816.0
2018-Apr-21 02:01N 50°10' W 000°47'714.8
2018-Apr-21 01:31N 50°08' W 000°58'714.8
2018-Apr-21 01:00N 50°04' W 001°07'815.3
2018-Apr-21 00:31N 49°59' W 001°16'815.2
2018-Apr-21 00:00N 49°54' W 001°25'816.2
2018-Apr-20 23:30N 49°48' W 001°34'713.9
2018-Apr-20 23:01N 49°43' W 001°41'4 7.8
2018-Apr-20 22:30N 49°45' W 001°46'713.8
2018-Apr-20 22:01N 49°49' W 001°54'713.2
2018-Apr-20 21:30N 49°52' W 002°04'612.3
2018-Apr-20 21:00N 49°54' W 002°13'713.8
2018-Apr-20 20:30N 49°52' W 002°23'714.4
2018-Apr-20 20:00N 49°51' W 002°34'816.8
2018-Apr-20 19:30N 49°50' W 002°47'816.6
2018-Apr-20 19:00N 49°48' W 002°60'816.3
2018-Apr-20 18:30N 49°44' W 003°10'816.2
2018-Apr-20 18:00N 49°39' W 003°21'917.2
2018-Apr-20 17:30N 49°35' W 003°32'1017.2
2018-Apr-20 16:56N 49°29' W 003°45'717.1
2018-Apr-20 16:30N 49°25' W 003°54'1216.8
2018-Apr-20 15:48N 49°19' W 004°09'3016.2
2018-Apr-20 13:55N 49°04' W 004°50'3115.4
2018-Apr-20 11:53N 48°48' W 005°31'4515.6
2018-Apr-20 08:59N 48°09' W 006°06'816.4
2018-Apr-20 08:30N 48°02' W 006°11'816.6
2018-Apr-20 08:00N 47°55' W 006°17'816.8
2018-Apr-20 07:30N 47°47' W 006°22'1117.1
2018-Apr-20 06:53N 47°38' W 006°30'46316.1
2018-Apr-19 02:05N 40°18' W 009°50'315.3
2018-Apr-19 01:53N 40°14' W 009°50'615.3
2018-Apr-19 01:28N 40°08' W 009°50'2515.5
2018-Apr-18 23:52N 39°43' W 009°51'715.4
2018-Apr-18 23:26N 39°37' W 009°51'715.3
2018-Apr-18 23:00N 39°30' W 009°51'815.2
2018-Apr-18 22:30N 39°23' W 009°51'715.0
2018-Apr-18 22:00N 39°15' W 009°51'715.0
2018-Apr-18 21:30N 39°08' W 009°51'714.7
2018-Apr-18 21:00N 39°00' W 009°51'714.8
2018-Apr-18 20:30N 38°53' W 009°51'714.6
2018-Apr-18 20:00N 38°46' W 009°52'815.0
2018-Apr-18 19:30N 38°38' W 009°51'714.7
2018-Apr-18 19:01N 38°31' W 009°49'814.9
2018-Apr-18 18:30N 38°24' W 009°46'815.2
2018-Apr-18 18:01N 38°17' W 009°43'714.7
2018-Apr-18 17:30N 38°09' W 009°41'714.6
2018-Apr-18 17:00N 38°02' W 009°39'714.8
2018-Apr-18 16:30N 37°55' W 009°37'714.7
2018-Apr-18 16:00N 37°48' W 009°36'714.6
2018-Apr-18 15:30N 37°41' W 009°33'714.9
2018-Apr-18 15:00N 37°34' W 009°31'814.9
2018-Apr-18 14:30N 37°26' W 009°29'3315.0
2018-Apr-18 12:17N 36°54' W 009°19'414.8
2018-Apr-18 12:00N 36°50' W 009°16'814.8
2018-Apr-18 11:27N 36°45' W 009°08'614.7
2018-Apr-18 11:01N 36°42' W 009°01'714.9
2018-Apr-18 10:31N 36°40' W 008°52'814.7
2018-Apr-18 09:56N 36°37' W 008°42'715.1
2018-Apr-18 09:31N 36°35' W 008°35'14716.2
2018-Apr-18 00:25N 35°58' W 005°38'716.2
2018-Apr-18 00:00N 35°59' W 005°29'815.3
2018-Apr-17 23:30N 36°02' W 005°20'814.9
2018-Apr-17 23:00N 36°04' W 005°11'  
2018-Apr-15 12:53N 36°54' E 012°54'716.5
2018-Apr-15 12:27N 36°52' E 013°02'715.6
2018-Apr-15 12:00N 36°49' E 013°11'917.7
2018-Apr-15 11:30N 36°47' E 013°21'815.8
2018-Apr-15 11:00N 36°45' E 013°30'1115.5
2018-Apr-15 10:19N 36°42' E 013°43'1317.5
2018-Apr-15 09:35N 36°38' E 013°59'219.4
2018-Apr-15 09:28N 36°37' E 014°01'814.4
2018-Apr-15 08:56N 36°35' E 014°10'715.2
2018-Apr-15 08:30N 36°33' E 014°18'917.0
2018-Apr-15 08:00N 36°30' E 014°28'917.5
2018-Apr-15 07:30N 36°27' E 014°38'814.5
2018-Apr-15 06:57N 36°24' E 014°48'716.1
2018-Apr-15 06:30N 36°22' E 014°56'42214.8
2018-Apr-14 01:55N 37°20' E 023°39'716.2
2018-Apr-14 01:29N 37°27' E 023°40'916.2
2018-Apr-14 00:54N 37°37' E 023°42'615.9
2018-Apr-14 00:30N 37°43' E 023°40'815.9
2018-Apr-14 00:00N 37°50' E 023°37'611.7
2018-Apr-13 23:30N 37°56' E 023°37'1 2.8
2018-Apr-13 23:00N 37°57' E 023°35'0 0.5
2018-Apr-13 22:27N 37°57' E 023°35'0 0.0
2018-Apr-13 22:00N 37°57' E 023°35'0 0.0
2018-Apr-13 21:30N 37°57' E 023°35'0 0.0
2018-Apr-13 21:00N 37°57' E 023°35'0 0.0
2018-Apr-13 20:30N 37°57' E 023°35'0 0.0
2018-Apr-13 20:00N 37°57' E 023°35'0 0.0
2018-Apr-13 19:30N 37°57' E 023°35'0 0.0
2018-Apr-13 19:00N 37°57' E 023°35'0 0.0
2018-Apr-13 18:30N 37°57' E 023°35'0 0.0
2018-Apr-13 18:00N 37°57' E 023°35'0 0.0
2018-Apr-13 17:30N 37°57' E 023°35'0 0.0
2018-Apr-13 17:00N 37°57' E 023°35'0 0.0
2018-Apr-13 16:27N 37°57' E 023°35'0 0.0
2018-Apr-13 16:00N 37°57' E 023°35'0 0.0
2018-Apr-13 15:30N 37°57' E 023°35'0 0.0
2018-Apr-13 15:00N 37°57' E 023°35'0 0.0
2018-Apr-13 14:30N 37°57' E 023°35'0 0.0
2018-Apr-13 14:00N 37°57' E 023°35'0 0.0
2018-Apr-13 13:30N 37°57' E 023°35'0 0.0
2018-Apr-13 13:00N 37°57' E 023°35'0 0.0
2018-Apr-13 12:30N 37°57' E 023°35'0 0.0
2018-Apr-13 12:00N 37°57' E 023°35'0 0.0
2018-Apr-13 11:30N 37°57' E 023°35'0 0.0
2018-Apr-13 11:00N 37°57' E 023°35'0 0.0
2018-Apr-13 10:30N 37°57' E 023°35'0 0.0
2018-Apr-13 10:00N 37°57' E 023°35'0 0.0
2018-Apr-13 09:30N 37°57' E 023°35'0 0.0
2018-Apr-13 09:00N 37°57' E 023°35'0 0.0
2018-Apr-13 08:30N 37°57' E 023°35'0 0.8
2018-Apr-13 08:01N 37°57' E 023°35'2 4.0
2018-Apr-13 07:30N 37°55' E 023°35'1 1.8
2018-Apr-13 07:01N 37°54' E 023°35'0 0.1
2018-Apr-13 06:30N 37°54' E 023°35'0 0.0
2018-Apr-13 06:00N 37°54' E 023°35'0 0.1
2018-Apr-13 05:30N 37°54' E 023°35'0 1.0
2018-Apr-13 05:01N 37°54' E 023°36'3 6.2
2018-Apr-13 04:30N 37°51' E 023°38'3 6.8
2018-Apr-13 04:00N 37°48' E 023°40'4 7.9
2018-Apr-13 03:31N 37°45' E 023°43'4 7.9
2018-Apr-13 03:00N 37°42' E 023°45'4 8.2
2018-Apr-13 02:30N 37°38' E 023°46'5 9.2
2018-Apr-13 02:01N 37°33' E 023°49'6213.5
2018-Apr-12 21:26N 36°36' E 024°16'816.1
2018-Apr-12 20:57N 36°31' E 024°24'716.3
2018-Apr-12 20:31N 36°27' E 024°31'816.8
2018-Apr-12 20:00N 36°22' E 024°40'  
Track history (hours):
 
Tides and Currents Weather Stations Pressure Air Temp Water Temp Dewpoint Dewpoint Depression Visibility Wind Speed Wind Dir Waves Ship Positions

Cosco Himalayas

Last reported at 2018-Apr-22 12:00 UTC. Time now 2018-Apr-22 12:06 UTC.
Position N 51°18' E 004°16'.

Length 366 m; draft 13.7 m.

Type: Ship (hazmat cat D). MMSI: 477100300.

Date/timePositionNaut miles runAvg speedWind from/ knotsBaromVisibWave heightAir tempDewpointWater temp
2018-Apr-22 12:00N 51°18' E 004°16'0 0.0
2018-Apr-22 11:30N 51°18' E 004°16'0 0.0
2018-Apr-22 11:00N 51°18' E 004°16'0 0.0
2018-Apr-22 10:27N 51°18' E 004°16'0 0.0
2018-Apr-22 10:00N 51°18' E 004°16'0 0.0
2018-Apr-22 09:27N 51°18' E 004°16'0 0.0
2018-Apr-22 08:57N 51°18' E 004°16'0 0.0
2018-Apr-22 08:30N 51°18' E 004°16'0 0.0
2018-Apr-22 08:00N 51°18' E 004°16'0 0.0
2018-Apr-22 07:29N 51°18' E 004°16'0 0.0
2018-Apr-22 06:59N 51°18' E 004°16'0 0.0
2018-Apr-22 06:29N 51°18' E 004°16'0 0.0
2018-Apr-22 05:59N 51°18' E 004°16'0 0.0
2018-Apr-22 05:29N 51°18' E 004°16'0 0.0
2018-Apr-22 04:59N 51°18' E 004°16'0 0.0
2018-Apr-22 04:29N 51°18' E 004°16'0 0.0
2018-Apr-22 03:59N 51°18' E 004°16'0 0.0
2018-Apr-22 03:29N 51°18' E 004°16'0 0.0
2018-Apr-22 02:59N 51°18' E 004°16'0 0.0
2018-Apr-22 02:29N 51°18' E 004°16'0 0.0
2018-Apr-22 01:59N 51°18' E 004°16'0 0.0
2018-Apr-22 01:29N 51°18' E 004°16'0 0.0
2018-Apr-22 00:59N 51°18' E 004°16'0 0.0
2018-Apr-22 00:29N 51°18' E 004°16'0 0.0
2018-Apr-21 23:59N 51°18' E 004°16'0 0.0
2018-Apr-21 23:29N 51°18' E 004°16'0 0.0
2018-Apr-21 22:59N 51°18' E 004°16'0 0.0
2018-Apr-21 22:29N 51°18' E 004°16'0 0.0
2018-Apr-21 21:59N 51°18' E 004°16'0 0.0
2018-Apr-21 21:29N 51°18' E 004°16'0 0.0
2018-Apr-21 20:59N 51°18' E 004°16'0 0.0
2018-Apr-21 20:29N 51°18' E 004°16'0 0.0
2018-Apr-21 20:00N 51°18' E 004°16'0 0.8
2018-Apr-21 19:30N 51°18' E 004°16'1 1.2
2018-Apr-21 19:01N 51°18' E 004°16'3 5.7
2018-Apr-21 18:31N 51°21' E 004°15'4 7.6
2018-Apr-21 18:00N 51°23' E 004°09'5 9.4
2018-Apr-21 17:31N 51°24' E 004°02'3 6.2
2018-Apr-21 17:00N 51°23' E 003°57'612.0
2018-Apr-21 16:30N 51°21' E 003°48'611.0
2018-Apr-21 16:00N 51°25' E 003°42'510.6
2018-Apr-21 15:30N 51°25' E 003°34'612.7
2018-Apr-21 15:00N 51°25' E 003°24'815.4
2018-Apr-21 14:30N 51°24' E 003°12'714.0
2018-Apr-21 13:59N 51°25' E 002°60'612.9
2018-Apr-21 13:30N 51°25' E 002°50'510.3
2018-Apr-21 13:00N 51°23' E 002°43'4 7.6
2018-Apr-21 12:30N 51°22' E 002°37'510.1
2018-Apr-21 12:00N 51°22' E 002°29'612.8
2018-Apr-21 11:30N 51°19' E 002°19'714.2
2018-Apr-21 11:01N 51°15' E 002°10'714.6
2018-Apr-21 10:31N 51°12' E 001°59'815.1
2018-Apr-21 10:01N 51°08' E 001°49'714.7
2018-Apr-21 09:30N 51°03' E 001°40'714.2
2018-Apr-21 09:00N 50°58' E 001°32'714.5
2018-Apr-21 08:31N 50°52' E 001°26'815.0
2018-Apr-21 08:00N 50°45' E 001°22'815.1
2018-Apr-21 07:31N 50°39' E 001°14'815.6
2018-Apr-21 07:00N 50°34' E 001°05'815.3
2018-Apr-21 06:31N 50°30' E 000°55'815.6
2018-Apr-21 06:01N 50°28' E 000°43'815.3
2018-Apr-21 05:30N 50°25' E 000°32'715.0
2018-Apr-21 05:01N 50°23' E 000°21'714.5
2018-Apr-21 04:31N 50°21' E 000°10'714.7
2018-Apr-21 04:00N 50°18' W 000°01'714.8
2018-Apr-21 03:31N 50°16' W 000°12'714.9
2018-Apr-21 03:01N 50°14' W 000°23'815.3
2018-Apr-21 02:31N 50°12' W 000°35'816.0
2018-Apr-21 02:01N 50°10' W 000°47'714.8
2018-Apr-21 01:31N 50°08' W 000°58'714.8
2018-Apr-21 01:00N 50°04' W 001°07'815.3
2018-Apr-21 00:31N 49°59' W 001°16'815.2
2018-Apr-21 00:00N 49°54' W 001°25'816.2
2018-Apr-20 23:30N 49°48' W 001°34'713.9
2018-Apr-20 23:01N 49°43' W 001°41'4 7.8
2018-Apr-20 22:30N 49°45' W 001°46'713.8
2018-Apr-20 22:01N 49°49' W 001°54'713.2
2018-Apr-20 21:30N 49°52' W 002°04'612.3
2018-Apr-20 21:00N 49°54' W 002°13'713.8
2018-Apr-20 20:30N 49°52' W 002°23'714.4
2018-Apr-20 20:00N 49°51' W 002°34'816.8
2018-Apr-20 19:30N 49°50' W 002°47'816.6
2018-Apr-20 19:00N 49°48' W 002°60'816.3
2018-Apr-20 18:30N 49°44' W 003°10'816.2
2018-Apr-20 18:00N 49°39' W 003°21'917.2
2018-Apr-20 17:30N 49°35' W 003°32'1017.2
2018-Apr-20 16:56N 49°29' W 003°45'717.1
2018-Apr-20 16:30N 49°25' W 003°54'1216.8
2018-Apr-20 15:48N 49°19' W 004°09'3016.2
2018-Apr-20 13:55N 49°04' W 004°50'3115.4
2018-Apr-20 11:53N 48°48' W 005°31'4515.6
2018-Apr-20 08:59N 48°09' W 006°06'816.4
2018-Apr-20 08:30N 48°02' W 006°11'816.6
2018-Apr-20 08:00N 47°55' W 006°17'816.8
2018-Apr-20 07:30N 47°47' W 006°22'1117.1
2018-Apr-20 06:53N 47°38' W 006°30'46316.1
2018-Apr-19 02:05N 40°18' W 009°50'315.3
2018-Apr-19 01:53N 40°14' W 009°50'615.3
2018-Apr-19 01:28N 40°08' W 009°50'2515.5
2018-Apr-18 23:52N 39°43' W 009°51'715.4
2018-Apr-18 23:26N 39°37' W 009°51'715.3
2018-Apr-18 23:00N 39°30' W 009°51'815.2
2018-Apr-18 22:30N 39°23' W 009°51'715.0
2018-Apr-18 22:00N 39°15' W 009°51'715.0
2018-Apr-18 21:30N 39°08' W 009°51'714.7
2018-Apr-18 21:00N 39°00' W 009°51'714.8
2018-Apr-18 20:30N 38°53' W 009°51'714.6
2018-Apr-18 20:00N 38°46' W 009°52'815.0
2018-Apr-18 19:30N 38°38' W 009°51'714.7
2018-Apr-18 19:01N 38°31' W 009°49'814.9
2018-Apr-18 18:30N 38°24' W 009°46'815.2
2018-Apr-18 18:01N 38°17' W 009°43'714.7
2018-Apr-18 17:30N 38°09' W 009°41'714.6
2018-Apr-18 17:00N 38°02' W 009°39'714.8
2018-Apr-18 16:30N 37°55' W 009°37'714.7
2018-Apr-18 16:00N 37°48' W 009°36'714.6
2018-Apr-18 15:30N 37°41' W 009°33'714.9
2018-Apr-18 15:00N 37°34' W 009°31'814.9
2018-Apr-18 14:30N 37°26' W 009°29'3315.0
2018-Apr-18 12:17N 36°54' W 009°19'414.8
2018-Apr-18 12:00N 36°50' W 009°16'814.8
2018-Apr-18 11:27N 36°45' W 009°08'614.7
2018-Apr-18 11:01N 36°42' W 009°01'714.9
2018-Apr-18 10:31N 36°40' W 008°52'814.7
2018-Apr-18 09:56N 36°37' W 008°42'715.1
2018-Apr-18 09:31N 36°35' W 008°35'14716.2
2018-Apr-18 00:25N 35°58' W 005°38'716.2
2018-Apr-18 00:00N 35°59' W 005°29'815.3
2018-Apr-17 23:30N 36°02' W 005°20'814.9
2018-Apr-17 23:00N 36°04' W 005°11'  
2018-Apr-15 12:53N 36°54' E 012°54'716.5
2018-Apr-15 12:27N 36°52' E 013°02'715.6
2018-Apr-15 12:00N 36°49' E 013°11'917.7
2018-Apr-15 11:30N 36°47' E 013°21'815.8
2018-Apr-15 11:00N 36°45' E 013°30'1115.5
2018-Apr-15 10:19N 36°42' E 013°43'1317.5
2018-Apr-15 09:35N 36°38' E 013°59'219.4
2018-Apr-15 09:28N 36°37' E 014°01'814.4
2018-Apr-15 08:56N 36°35' E 014°10'715.2
2018-Apr-15 08:30N 36°33' E 014°18'917.0
2018-Apr-15 08:00N 36°30' E 014°28'917.5
2018-Apr-15 07:30N 36°27' E 014°38'814.5
2018-Apr-15 06:57N 36°24' E 014°48'716.1
2018-Apr-15 06:30N 36°22' E 014°56'42214.8
2018-Apr-14 01:55N 37°20' E 023°39'716.2
2018-Apr-14 01:29N 37°27' E 023°40'916.2
2018-Apr-14 00:54N 37°37' E 023°42'615.9
2018-Apr-14 00:30N 37°43' E 023°40'815.9
2018-Apr-14 00:00N 37°50' E 023°37'611.7
2018-Apr-13 23:30N 37°56' E 023°37'1 2.8
2018-Apr-13 23:00N 37°57' E 023°35'0 0.5
2018-Apr-13 22:27N 37°57' E 023°35'0 0.0
2018-Apr-13 22:00N 37°57' E 023°35'0 0.0
2018-Apr-13 21:30N 37°57' E 023°35'0 0.0
2018-Apr-13 21:00N 37°57' E 023°35'0 0.0
2018-Apr-13 20:30N 37°57' E 023°35'0 0.0
2018-Apr-13 20:00N 37°57' E 023°35'0 0.0
2018-Apr-13 19:30N 37°57' E 023°35'0 0.0
2018-Apr-13 19:00N 37°57' E 023°35'0 0.0
2018-Apr-13 18:30N 37°57' E 023°35'0 0.0
2018-Apr-13 18:00N 37°57' E 023°35'0 0.0
2018-Apr-13 17:30N 37°57' E 023°35'0 0.0
2018-Apr-13 17:00N 37°57' E 023°35'0 0.0
2018-Apr-13 16:27N 37°57' E 023°35'0 0.0
2018-Apr-13 16:00N 37°57' E 023°35'0 0.0
2018-Apr-13 15:30N 37°57' E 023°35'0 0.0
2018-Apr-13 15:00N 37°57' E 023°35'0 0.0
2018-Apr-13 14:30N 37°57' E 023°35'0 0.0
2018-Apr-13 14:00N 37°57' E 023°35'0 0.0
2018-Apr-13 13:30N 37°57' E 023°35'0 0.0
2018-Apr-13 13:00N 37°57' E 023°35'0 0.0
2018-Apr-13 12:30N 37°57' E 023°35'0 0.0
2018-Apr-13 12:00N 37°57' E 023°35'0 0.0
2018-Apr-13 11:30N 37°57' E 023°35'0 0.0
2018-Apr-13 11:00N 37°57' E 023°35'0 0.0
2018-Apr-13 10:30N 37°57' E 023°35'0 0.0
2018-Apr-13 10:00N 37°57' E 023°35'0 0.0
2018-Apr-13 09:30N 37°57' E 023°35'0 0.0
2018-Apr-13 09:00N 37°57' E 023°35'0 0.0
2018-Apr-13 08:30N 37°57' E 023°35'0 0.8
2018-Apr-13 08:01N 37°57' E 023°35'2 4.0
2018-Apr-13 07:30N 37°55' E 023°35'1 1.8
2018-Apr-13 07:01N 37°54' E 023°35'0 0.1
2018-Apr-13 06:30N 37°54' E 023°35'0 0.0
2018-Apr-13 06:00N 37°54' E 023°35'0 0.1
2018-Apr-13 05:30N 37°54' E 023°35'0 1.0
2018-Apr-13 05:01N 37°54' E 023°36'3 6.2
2018-Apr-13 04:30N 37°51' E 023°38'3 6.8
2018-Apr-13 04:00N 37°48' E 023°40'4 7.9
2018-Apr-13 03:31N 37°45' E 023°43'4 7.9
2018-Apr-13 03:00N 37°42' E 023°45'4 8.2
2018-Apr-13 02:30N 37°38' E 023°46'5 9.2
2018-Apr-13 02:01N 37°33' E 023°49'6213.5
2018-Apr-12 21:26N 36°36' E 024°16'816.1
2018-Apr-12 20:57N 36°31' E 024°24'716.3
2018-Apr-12 20:31N 36°27' E 024°31'816.8
2018-Apr-12 20:00N 36°22' E 024°40'  

Dump ship's entire track history